DYess Air Force Base Abilene US
ICAO: KDYS
IATA: DYS
Category: Large
Scheduled Services: No

Elevation: 1789 ft
TransAlt. 18000 ft.

Airport Communications:
ABILENE APP/DEP:125
ATIS:38.57
GND:118.35
PMSV METRO:38.325
ACC COMMAND POST:31.1
AMCC:34.94
PTD:139.3
TWR:133

KDYS Zoom In..

Runways:

(A) RW 16 length 13500 ft width 300 ft
ILS 109.90 / hdg 161

(B) RW 34 length 13500 ft width 300 ft
ILS 109.90 / hdg 341

Location; KDYS
Day. 17 / Time. 06.56 Zulu
* Altimeter: 30.04
* Temperature: 28° c. 82.4°f.
* Wind from: 180° Speed 11 kn.
Dewpoint: 11° c.
Visibility: 10 Statute Miles.
Clouds: Clear (automated report).

KDYS 170656Z AUTO 18011KT 10SM CLR 28/11 A3004 RMK AO2 SLP118 T02820113 $


Wind From 180°
Speed 11 kn.

 
 
jpsmedia.com for Web Design worldairports.se 2018   terms of use